createdAt,value
2017-03-20T00:03:17.406Z,21.5
2017-03-20T00:08:18.567Z,21.5
2017-03-20T00:13:19.731Z,21.6
2017-03-20T00:18:20.829Z,21.7
2017-03-20T00:23:21.943Z,21.8
2017-03-20T00:28:23.058Z,21.8
2017-03-20T00:33:24.217Z,21.9
2017-03-20T00:38:25.278Z,21.8
2017-03-20T00:43:26.346Z,21.8
2017-03-20T00:48:27.493Z,21.9
2017-03-20T00:53:28.651Z,21.8
2017-03-20T00:58:29.800Z,21.8
2017-03-20T01:03:30.866Z,21.7
2017-03-20T01:08:31.990Z,21.6
2017-03-20T01:13:33.119Z,21.5
2017-03-20T01:18:34.160Z,21.4
2017-03-20T01:23:35.264Z,21.3
2017-03-20T01:28:36.371Z,21.3
2017-03-20T01:33:37.504Z,21.1
2017-03-20T01:38:38.484Z,20.9
2017-03-20T01:43:39.599Z,20.8
2017-03-20T01:48:40.766Z,20.8
2017-03-20T01:53:41.872Z,20.8
2017-03-20T01:58:42.977Z,20.7
2017-03-20T02:03:44.125Z,20.6
2017-03-20T02:13:46.421Z,20.6
2017-03-20T02:18:47.558Z,20.5
2017-03-20T02:23:48.692Z,20.5
2017-03-20T02:28:49.829Z,20.4
2017-03-20T02:33:50.938Z,20.4
2017-03-20T02:38:52.070Z,20.4
2017-03-20T02:43:53.197Z,20.5
2017-03-20T02:48:54.359Z,20.6
2017-03-20T02:53:55.509Z,20.6
2017-03-20T02:58:56.659Z,20.6
2017-03-20T03:03:57.735Z,20.5
2017-03-20T03:08:58.852Z,20.4
2017-03-20T03:14:00.027Z,20.3
2017-03-20T03:19:01.135Z,20.2
2017-03-20T03:24:02.270Z,20.2
2017-03-20T03:29:03.434Z,20.2
2017-03-20T03:34:04.525Z,20.3
2017-03-20T03:39:05.624Z,20.4
2017-03-20T03:44:06.738Z,20.5
2017-03-20T03:49:07.845Z,20.5
2017-03-20T03:54:08.970Z,20.5
2017-03-20T03:59:10.105Z,20.7
2017-03-20T04:04:11.250Z,20.8
2017-03-20T04:09:12.342Z,20.9
2017-03-20T04:14:13.534Z,21
2017-03-20T04:19:14.701Z,21
2017-03-20T04:24:15.813Z,21
2017-03-20T04:29:17.002Z,21.1
2017-03-20T04:34:18.145Z,21.2
2017-03-20T04:39:19.212Z,21.4
2017-03-20T04:44:20.326Z,21.5
2017-03-20T04:49:21.433Z,21.6
2017-03-20T04:54:22.556Z,21.7
2017-03-20T04:59:23.615Z,21.8
2017-03-20T05:04:24.762Z,21.8
2017-03-20T05:09:25.825Z,21.8
2017-03-20T05:14:26.902Z,21.8
2017-03-20T05:19:28.063Z,21.9
2017-03-20T05:24:29.146Z,21.8
2017-03-20T05:29:30.279Z,21.6
2017-03-20T05:34:31.341Z,21.6
2017-03-20T05:39:32.457Z,21.5
2017-03-20T05:44:33.560Z,21.4
2017-03-20T05:49:34.736Z,21.4
2017-03-20T05:54:35.818Z,21.3
2017-03-20T05:59:36.900Z,21.1
2017-03-20T06:04:38.026Z,21.1
2017-03-20T06:09:39.139Z,20.9
2017-03-20T06:14:40.249Z,20.7
2017-03-20T06:19:41.401Z,20.7
2017-03-20T06:24:42.478Z,20.6
2017-03-20T06:29:43.626Z,20.5
2017-03-20T06:34:44.760Z,20.6
2017-03-20T06:39:45.911Z,20.6
2017-03-20T06:44:47.045Z,20.6
2017-03-20T06:49:48.194Z,20.6
2017-03-20T06:54:49.332Z,20.7
2017-03-20T06:59:50.514Z,20.8
2017-03-20T07:04:51.701Z,21
2017-03-20T07:09:52.841Z,21.1
2017-03-20T07:14:53.930Z,21.3
2017-03-20T07:19:55.022Z,21.4
2017-03-20T07:24:56.129Z,21.5
2017-03-20T07:29:57.255Z,21.6
2017-03-20T07:34:58.412Z,21.8
2017-03-20T07:39:59.572Z,21.9
2017-03-20T07:45:00.689Z,22.1
2017-03-20T07:50:01.820Z,22.2
2017-03-20T07:55:02.885Z,22.3
2017-03-20T08:00:03.969Z,22.5
2017-03-20T08:05:05.078Z,22.6
2017-03-20T08:10:06.193Z,22.8
2017-03-20T08:15:07.347Z,22.9
2017-03-20T08:20:08.506Z,23.1
2017-03-20T08:25:09.627Z,23.3
2017-03-20T08:30:10.677Z,23.5
2017-03-20T08:35:11.838Z,23.6
2017-03-20T08:40:12.932Z,23.8
2017-03-20T08:45:14.070Z,24
2017-03-20T08:50:15.226Z,24.1
2017-03-20T08:55:16.328Z,24.2
2017-03-20T09:00:17.436Z,24.4
2017-03-20T09:05:18.564Z,24.4
2017-03-20T09:10:19.633Z,24.4
2017-03-20T09:15:20.773Z,24.5
2017-03-20T09:20:21.853Z,24.5
2017-03-20T09:25:23.009Z,24.5
2017-03-20T09:30:24.099Z,24.4
2017-03-20T09:35:25.262Z,24.4
2017-03-20T09:40:26.327Z,24.4
2017-03-20T09:45:27.414Z,24.5
2017-03-20T09:50:28.503Z,24.5
2017-03-20T09:55:29.636Z,24.5
2017-03-20T10:00:30.747Z,24.6
2017-03-20T10:05:31.876Z,24.6
2017-03-20T10:10:33.096Z,24.5
2017-03-20T10:15:34.091Z,24.5
2017-03-20T10:20:35.260Z,24.4
2017-03-20T10:25:36.344Z,24.4
2017-03-20T10:30:37.499Z,24.4
2017-03-20T10:35:38.661Z,24.4
2017-03-20T10:40:39.795Z,24.4
2017-03-20T10:45:40.881Z,24.4
2017-03-20T10:50:42.048Z,24.4
2017-03-20T10:55:43.206Z,24.4
2017-03-20T11:00:44.306Z,24.5
2017-03-20T11:05:45.402Z,24.6
2017-03-20T11:10:46.513Z,24.6
2017-03-20T11:15:47.618Z,24.5
2017-03-20T11:20:48.777Z,24.5
2017-03-20T11:25:49.874Z,24.6
2017-03-20T11:30:50.995Z,24.7
2017-03-20T11:35:52.145Z,24.8
2017-03-20T11:40:53.244Z,24.9
2017-03-20T11:45:54.319Z,24.9
2017-03-20T11:50:55.410Z,24.8
2017-03-20T11:55:56.492Z,24.8
2017-03-20T12:00:57.586Z,24.7
2017-03-20T12:05:58.733Z,24.7
2017-03-20T12:10:59.878Z,24.6
2017-03-20T12:16:00.944Z,24.5
2017-03-20T12:21:02.079Z,24.7
2017-03-20T12:26:03.203Z,24.7
2017-03-20T12:31:04.357Z,24.8
2017-03-20T12:36:05.512Z,24.9
2017-03-20T12:41:06.618Z,24.8
2017-03-20T12:46:07.713Z,24.9
2017-03-20T12:51:08.800Z,24.9
2017-03-20T12:56:09.915Z,25
2017-03-20T13:01:11.018Z,25
2017-03-20T13:06:12.137Z,25
2017-03-20T13:11:13.268Z,25.1
2017-03-20T13:16:14.375Z,25.1
2017-03-20T13:21:15.494Z,25.1
2017-03-20T13:26:16.618Z,25.1
2017-03-20T13:31:17.736Z,25.1
2017-03-20T13:36:18.863Z,25
2017-03-20T13:41:19.911Z,25.1
2017-03-20T13:46:20.964Z,25.1
2017-03-20T13:51:22.008Z,25.1
2017-03-20T13:56:23.130Z,25.1
2017-03-20T14:01:24.162Z,25.1
2017-03-20T14:06:25.261Z,25
2017-03-20T14:11:26.343Z,25.1
2017-03-20T14:16:27.442Z,25.1
2017-03-20T14:21:28.541Z,25.1
2017-03-20T14:26:29.635Z,25
2017-03-20T14:31:30.738Z,25.1
2017-03-20T14:36:31.832Z,25.1
2017-03-20T14:41:33.016Z,25.1
2017-03-20T14:46:34.117Z,25
2017-03-20T14:51:35.282Z,25
2017-03-20T14:56:36.368Z,25
2017-03-20T15:01:37.456Z,25.1
2017-03-20T15:06:38.550Z,25.1
2017-03-20T15:11:39.659Z,25
2017-03-20T15:16:40.825Z,25.1
2017-03-20T15:21:41.987Z,24.9
2017-03-20T15:26:43.253Z,24.9
2017-03-20T15:31:44.277Z,24.9
2017-03-20T15:36:45.361Z,24.8
2017-03-20T15:41:46.453Z,24.9
2017-03-20T15:46:47.571Z,24.8
2017-03-20T15:51:48.636Z,24.8
2017-03-20T15:56:49.787Z,24.8
2017-03-20T16:01:50.954Z,24.8
2017-03-20T16:06:52.023Z,24.8
2017-03-20T16:11:53.154Z,24.7
2017-03-20T16:16:54.284Z,24.7
2017-03-20T16:21:55.335Z,24.7
2017-03-20T16:26:56.455Z,24.7
2017-03-20T16:31:57.591Z,24.7
2017-03-20T16:36:58.647Z,24.7
2017-03-20T16:41:59.767Z,24.6
2017-03-20T16:47:00.894Z,24.6
2017-03-20T16:52:02.003Z,24.6
2017-03-20T16:57:03.109Z,24.6
2017-03-20T17:02:04.218Z,24.6
2017-03-20T17:07:05.380Z,24.6
2017-03-20T17:12:06.449Z,24.3
2017-03-20T17:17:07.618Z,24.2
2017-03-20T17:22:08.764Z,24.2
2017-03-20T17:27:09.910Z,24
2017-03-20T17:32:11.035Z,23.8
2017-03-20T17:37:12.162Z,23.8
2017-03-20T17:42:13.268Z,23.8
2017-03-20T17:47:14.300Z,23.7
2017-03-20T17:52:15.400Z,23.9
2017-03-20T17:57:16.499Z,23.7
2017-03-20T18:02:17.681Z,23.8
2017-03-20T18:07:18.769Z,23.9
2017-03-20T18:12:19.870Z,23.9
2017-03-20T18:17:20.944Z,23.8
2017-03-20T18:22:22.016Z,23.7
2017-03-20T18:27:23.141Z,23.8
2017-03-20T18:32:24.197Z,23.7
2017-03-20T18:37:25.347Z,23.7
2017-03-20T18:42:26.397Z,23.7
2017-03-20T18:47:27.528Z,23.6
2017-03-20T18:52:28.652Z,23.6
2017-03-20T18:57:29.777Z,23.5
2017-03-20T19:02:30.893Z,23.5
2017-03-20T19:07:31.922Z,23.5
2017-03-20T19:12:33.032Z,23.5
2017-03-20T19:17:34.128Z,23.3
2017-03-20T19:22:35.289Z,23.3
2017-03-20T19:27:36.445Z,23.2
2017-03-20T19:32:37.522Z,23.1
2017-03-20T19:37:38.655Z,23.1
2017-03-20T19:42:39.797Z,23
2017-03-20T19:47:40.767Z,23
2017-03-20T19:52:41.911Z,23
2017-03-20T19:57:43.021Z,22.9
2017-03-20T20:02:44.117Z,22.8
2017-03-20T20:07:45.309Z,22.8
2017-03-20T20:12:46.311Z,22.7
2017-03-20T20:17:47.456Z,22.7
2017-03-20T20:22:48.623Z,22.7
2017-03-20T20:27:49.708Z,22.7
2017-03-20T20:32:50.875Z,22.7
2017-03-20T20:37:51.972Z,22.8
2017-03-20T20:42:53.091Z,22.9
2017-03-20T20:47:54.212Z,23
2017-03-20T20:52:55.360Z,23.1
2017-03-20T20:57:56.454Z,23.2
2017-03-20T21:02:57.658Z,23.3
2017-03-20T21:07:58.779Z,23.4
2017-03-20T21:12:59.925Z,23.5
2017-03-20T21:18:01.071Z,23.6
2017-03-20T21:23:02.150Z,23.6
2017-03-20T21:28:03.236Z,23.6
2017-03-20T21:33:04.322Z,23.5
2017-03-20T21:38:05.478Z,23.5
2017-03-20T21:48:07.705Z,23.4
2017-03-20T21:53:08.786Z,23.4
2017-03-20T21:58:09.854Z,23.3
2017-03-20T22:03:10.910Z,23.3
2017-03-20T22:08:11.953Z,23.3
2017-03-20T22:13:13.073Z,23.2
2017-03-20T22:18:14.206Z,23.1
2017-03-20T22:23:15.314Z,23.1
2017-03-20T22:28:16.422Z,23
2017-03-20T22:33:17.527Z,23
2017-03-20T22:38:18.699Z,22.9
2017-03-20T22:43:19.859Z,22.9
2017-03-20T22:48:20.936Z,22.8
2017-03-20T22:53:21.999Z,22.8
2017-03-20T22:58:23.151Z,22.7
2017-03-20T23:03:24.282Z,22.6
2017-03-20T23:08:25.403Z,22.5
2017-03-20T23:13:26.524Z,22.5
2017-03-20T23:18:27.649Z,22.5
2017-03-20T23:23:28.731Z,22.4
2017-03-20T23:28:29.794Z,22.3
2017-03-20T23:33:30.940Z,22.3
2017-03-20T23:38:32.086Z,22.2
2017-03-20T23:43:33.161Z,22.2
2017-03-20T23:48:34.299Z,22.2
2017-03-20T23:53:35.437Z,22.2
2017-03-20T23:58:36.572Z,22.1
